Airfield :
LOGIN :

Register | Disclaimer

   EN    FR    IT 

 










Legend :    VFR   Marginal VFR   IFR   Intensive IFR   Very Intensive IFR
Visi :
Ceiling :
>= 8 km
>= 3000ft
5 to 8 km
1000 to 3000 ft
1500m to 5 km
500 to 1000 ft
800 to 1500m
200 to 500 ft
< 800m
< 200 ft
Symbols :   Thunderstorms  Fog  Heavy snow  Heavy precipitations  Wind > 20 kt
SIGMETs :     Misc.  Thunderstorms  Icing  Turbulence  Mountain Waves  Volcanic Ashes







- Airport Elevation : 2077 ft
- IATA code : FMM


EDJA - Memmingen

CURRENT METAR :
  • 171420Z 05014KT 9999 OVC012 M06/M09 Q1027

EXPIRED METARs :
  • 171350Z 05010KT 9999 BKN012 M06/M09 Q1027
  • 171320Z 06011KT 9999 BKN010 OVC017 M07/M09 Q1027
  • 171250Z 06010KT 9999 OVC012 M07/M09 Q1027
  • 171220Z 04011KT 9999 BKN010 BKN021 OVC026 M07/M09 Q1027
  • 171150Z 05011KT 020V080 9999 OVC009 M07/M09 Q1027

TAF TAF EDJA
Valid from the 17 at 15:00 until the 18 at 00:00 UTC


171400Z 1715/1724 06012KT 9999 BKN015
TEMPO 1715/1717 03015G25KT 4000 -SN BKN006
BECMG 1717/1719 BKN006
TEMPO 1722/1724 2000 BR OVC003
No reported NOTAMs for that airfield.
1 SIGMET reported for the München FIR (EDMM) :
 
Severe turbulence
EDMM SIGMET 2 VALID 171300/171700 EDZM
EDMM MUNCHEN FIR SEV TURB FCST WI N5117 E01504 - N5048 E01450 - N4910 E01313 - N4809 E00935 - N4958 E01042 - N5117 E01504 FL180/245 MOV SE NC=



MET'MAP, your aeronautical weather chart ! - Copyright ORBIFLY December 2007 - Disclaimer

ORBIFLY MET'MAP TEAM :

Programming & Development : Alexandra Zaïnal
Concept & Development : Baudouin d'Aumeries
Co-Development & Prog : Marc-Olivier Méhu
Technical & hardware support : Manuel Goepfert

Contact : metmap@orbifly.com




SOURCES & CREDITS :

   NOAA